createdAt,value
2022-08-07T00:00:40.021Z,15.78
2022-08-07T00:03:47.346Z,15.60
2022-08-07T00:06:52.258Z,15.70
2022-08-07T00:10:18.803Z,15.72
2022-08-07T00:13:25.580Z,15.77
2022-08-07T00:16:30.769Z,15.95
2022-08-07T00:20:01.088Z,15.83
2022-08-07T00:22:59.256Z,15.88
2022-08-07T00:26:18.638Z,16.10
2022-08-07T00:29:32.090Z,16.24
2022-08-07T00:32:36.216Z,16.51
2022-08-07T00:35:40.129Z,16.94
2022-08-07T00:38:44.808Z,17.47
2022-08-07T00:42:02.121Z,18.02
2022-08-07T00:45:16.341Z,18.51
2022-08-07T00:48:25.123Z,19.03
2022-08-07T00:51:58.209Z,19.02
2022-08-07T00:54:59.608Z,19.17
2022-08-07T00:58:09.345Z,19.55
2022-08-07T01:01:13.480Z,19.71
2022-08-07T01:04:24.614Z,19.89
2022-08-07T01:07:31.482Z,19.75
2022-08-07T01:10:36.977Z,19.25
2022-08-07T01:13:46.733Z,19.34
2022-08-07T01:17:04.262Z,19.22
2022-08-07T01:20:16.976Z,19.20
2022-08-07T01:23:25.484Z,19.28
2022-08-07T01:26:43.491Z,19.37
2022-08-07T01:29:56.517Z,19.38
2022-08-07T01:33:03.560Z,19.40
2022-08-07T01:36:10.695Z,19.64
2022-08-07T01:39:20.775Z,20.10
2022-08-07T01:42:39.848Z,20.32
2022-08-07T01:46:00.769Z,20.42
2022-08-07T01:49:05.053Z,20.46
2022-08-07T01:52:12.471Z,20.46
2022-08-07T01:55:28.083Z,20.29
2022-08-07T01:58:37.627Z,20.46
2022-08-07T02:02:02.432Z,20.83
2022-08-07T02:05:42.947Z,21.43
2022-08-07T02:08:46.798Z,21.61
2022-08-07T02:12:18.008Z,21.42
2022-08-07T02:15:28.214Z,21.13
2022-08-07T02:18:34.477Z,21.07
2022-08-07T02:21:56.759Z,21.05
2022-08-07T02:25:07.030Z,20.76
2022-08-07T02:28:24.732Z,20.94
2022-08-07T02:31:32.961Z,21.48
2022-08-07T02:34:38.983Z,21.99
2022-08-07T02:37:54.921Z,21.95
2022-08-07T02:41:03.957Z,22.09
2022-08-07T02:44:13.596Z,22.14
2022-08-07T02:47:23.499Z,21.85
2022-08-07T02:50:37.389Z,21.82
2022-08-07T02:53:42.858Z,21.80
2022-08-07T02:56:50.436Z,21.80
2022-08-07T03:00:01.367Z,21.89
2022-08-07T03:03:13.834Z,21.36
2022-08-07T03:06:33.173Z,20.96
2022-08-07T03:09:44.757Z,20.66
2022-08-07T03:12:52.005Z,21.21
2022-08-07T03:15:58.300Z,21.24
2022-08-07T03:19:07.235Z,21.25
2022-08-07T03:22:18.765Z,21.07
2022-08-07T03:25:40.076Z,20.95
2022-08-07T03:28:47.305Z,20.63
2022-08-07T03:31:53.192Z,20.48
2022-08-07T03:35:17.650Z,20.54
2022-08-07T03:38:29.841Z,20.86
2022-08-07T03:41:47.445Z,21.17
2022-08-07T03:44:57.965Z,21.59
2022-08-07T03:48:03.891Z,21.49
2022-08-07T03:51:14.404Z,21.83
2022-08-07T03:54:35.590Z,21.66
2022-08-07T03:58:32.942Z,21.32
2022-08-07T04:01:15.958Z,20.80
2022-08-07T04:04:23.245Z,20.51
2022-08-07T04:07:36.225Z,20.74
2022-08-07T04:10:53.879Z,21.14
2022-08-07T04:14:09.522Z,21.46
2022-08-07T04:18:30.875Z,21.31
2022-08-07T04:20:54.794Z,21.05
2022-08-07T04:24:07.259Z,20.80
2022-08-07T04:27:20.488Z,20.93
2022-08-07T04:30:43.780Z,21.03
2022-08-07T04:33:54.979Z,20.93
2022-08-07T04:37:02.017Z,20.79
2022-08-07T04:40:09.332Z,20.60
2022-08-07T04:43:19.532Z,20.37
2022-08-07T04:47:04.640Z,20.39
2022-08-07T04:50:39.042Z,20.47
2022-08-07T04:54:50.401Z,20.41
2022-08-07T04:58:11.160Z,20.69
2022-08-07T05:01:32.121Z,20.90
2022-08-07T05:05:11.410Z,20.74
2022-08-07T05:08:59.673Z,20.81
2022-08-07T05:11:58.192Z,20.89
2022-08-07T05:15:23.544Z,20.71
2022-08-07T05:18:36.765Z,20.97
2022-08-07T05:21:59.544Z,21.05
2022-08-07T05:25:36.716Z,21.50
2022-08-07T05:28:36.395Z,21.58
2022-08-07T05:31:52.799Z,21.72
2022-08-07T05:35:04.117Z,21.50
2022-08-07T05:38:11.472Z,21.29
2022-08-07T05:41:16.824Z,21.07
2022-08-07T05:44:29.682Z,21.06
2022-08-07T05:47:59.993Z,21.08
2022-08-07T05:51:03.540Z,21.07
2022-08-07T05:54:30.223Z,21.68
2022-08-07T05:57:37.760Z,22.22
2022-08-07T06:00:46.316Z,21.50
2022-08-07T06:04:01.001Z,21.42
2022-08-07T06:07:23.031Z,21.19
2022-08-07T06:10:39.137Z,21.32
2022-08-07T06:14:12.925Z,21.63
2022-08-07T06:17:13.150Z,21.72
2022-08-07T06:20:31.887Z,21.86
2022-08-07T06:24:37.079Z,21.53
2022-08-07T06:27:08.884Z,21.34
2022-08-07T06:30:23.999Z,21.40
2022-08-07T06:33:39.230Z,21.63
2022-08-07T06:36:42.534Z,21.78
2022-08-07T06:40:16.014Z,22.22
2022-08-07T06:43:21.525Z,22.08
2022-08-07T06:47:10.611Z,21.66
2022-08-07T06:50:19.096Z,21.94
2022-08-07T06:55:27.693Z,22.17
2022-08-07T06:56:52.594Z,22.44
2022-08-07T07:00:11.856Z,22.74
2022-08-07T07:03:39.721Z,23.42
2022-08-07T07:07:00.209Z,23.33
2022-08-07T07:10:04.930Z,22.82
2022-08-07T07:13:43.653Z,23.85
2022-08-07T07:16:50.760Z,24.79
2022-08-07T07:20:00.727Z,25.12
2022-08-07T07:24:08.527Z,24.89
2022-08-07T07:26:37.799Z,25.28
2022-08-07T07:30:09.224Z,25.05
2022-08-07T07:33:16.235Z,25.65
2022-08-07T07:36:21.286Z,26.12
2022-08-07T07:39:35.809Z,25.90
2022-08-07T07:42:55.646Z,26.09
2022-08-07T07:46:40.571Z,26.57
2022-08-07T07:50:34.295Z,26.90
2022-08-07T07:52:53.115Z,27.65
2022-08-07T07:56:00.831Z,28.03
2022-08-07T07:59:06.760Z,27.96
2022-08-07T08:02:33.823Z,27.74
2022-08-07T08:05:43.203Z,28.23
2022-08-07T08:09:01.782Z,28.44
2022-08-07T08:12:06.835Z,27.32
2022-08-07T08:15:11.303Z,27.25
2022-08-07T08:18:18.622Z,29.21
2022-08-07T08:21:55.356Z,27.78
2022-08-07T08:25:43.077Z,25.59
2022-08-07T08:28:52.611Z,25.11
2022-08-07T08:32:17.113Z,25.00
2022-08-07T08:35:28.713Z,25.49
2022-08-07T08:38:45.737Z,24.07
2022-08-07T08:41:58.519Z,23.41
2022-08-07T08:45:21.612Z,23.28
2022-08-07T08:48:38.685Z,25.69
2022-08-07T08:52:14.032Z,26.72
2022-08-07T08:55:55.398Z,27.92
2022-08-07T08:59:13.962Z,28.25
2022-08-07T09:02:41.915Z,27.28
2022-08-07T09:06:11.303Z,26.30
2022-08-07T09:09:57.005Z,23.95
2022-08-07T09:13:36.979Z,22.94
2022-08-07T09:16:48.924Z,23.92
2022-08-07T09:20:35.607Z,22.69
2022-08-07T09:24:34.136Z,22.17
2022-08-07T09:27:27.499Z,21.81
2022-08-07T09:30:50.575Z,21.35
2022-08-07T09:34:19.054Z,21.11
2022-08-07T09:37:33.530Z,21.03
2022-08-07T09:41:25.087Z,20.88
2022-08-07T09:47:49.622Z,20.52
2022-08-07T09:50:01.622Z,20.36
2022-08-07T09:53:00.043Z,20.31
2022-08-07T09:56:14.620Z,20.40
2022-08-07T10:00:00.362Z,21.40
2022-08-07T10:04:03.830Z,21.45
2022-08-07T10:07:24.190Z,24.04
2022-08-07T10:11:16.895Z,24.82
2022-08-07T10:14:41.627Z,28.20
2022-08-07T10:18:02.784Z,29.65
2022-08-07T10:21:19.891Z,30.18
2022-08-07T10:24:55.620Z,31.22
2022-08-07T10:28:29.434Z,31.51
2022-08-07T10:32:16.487Z,31.87
2022-08-07T10:35:53.562Z,31.85
2022-08-07T10:39:22.260Z,31.51
2022-08-07T10:42:38.089Z,30.95
2022-08-07T10:45:57.427Z,30.56
2022-08-07T10:49:49.250Z,30.57
2022-08-07T10:53:26.705Z,29.98
2022-08-07T10:57:01.131Z,28.78
2022-08-07T11:00:36.499Z,26.10
2022-08-07T11:04:16.642Z,27.43
2022-08-07T11:07:58.605Z,28.93
2022-08-07T11:11:22.866Z,29.10
2022-08-07T11:14:45.088Z,29.26
2022-08-07T11:18:17.737Z,29.43
2022-08-07T11:21:40.848Z,28.74
2022-08-07T11:25:14.794Z,27.83
2022-08-07T11:28:31.212Z,27.02
2022-08-07T11:32:07.240Z,27.24
2022-08-07T11:35:25.159Z,27.13
2022-08-07T11:39:06.804Z,26.36
2022-08-07T11:42:49.203Z,25.61
2022-08-07T11:46:11.941Z,25.26
2022-08-07T11:50:18.775Z,25.36
2022-08-07T11:53:27.895Z,24.06
2022-08-07T11:57:00.818Z,22.89
2022-08-07T12:00:19.700Z,21.20
2022-08-07T12:03:49.882Z,19.97
2022-08-07T12:07:18.998Z,19.33
2022-08-07T12:10:45.938Z,18.87
2022-08-07T12:14:09.732Z,18.58
2022-08-07T12:17:30.320Z,18.44
2022-08-07T12:20:49.108Z,18.19
2022-08-07T12:24:06.807Z,17.95
2022-08-07T12:27:27.943Z,17.78
2022-08-07T12:30:40.404Z,17.59
2022-08-07T12:33:56.469Z,17.49
2022-08-07T12:37:08.452Z,17.36
2022-08-07T12:40:46.408Z,17.22
2022-08-07T12:44:03.839Z,17.18
2022-08-07T12:47:55.304Z,17.06
2022-08-07T12:51:18.163Z,16.88
2022-08-07T12:54:38.836Z,16.98
2022-08-07T12:58:00.426Z,16.89
2022-08-07T13:01:29.346Z,16.69
2022-08-07T13:05:06.429Z,16.61
2022-08-07T13:08:46.887Z,16.51
2022-08-07T13:12:18.412Z,16.42
2022-08-07T13:15:54.049Z,16.39
2022-08-07T13:19:21.902Z,16.22
2022-08-07T13:23:59.749Z,16.13
2022-08-07T13:26:49.707Z,15.99
2022-08-07T13:30:03.731Z,16.01
2022-08-07T13:34:30.446Z,15.87
2022-08-07T13:37:11.018Z,15.78
2022-08-07T13:40:36.074Z,15.62
2022-08-07T13:43:52.730Z,15.50
2022-08-07T13:47:01.257Z,15.47
2022-08-07T13:50:33.729Z,15.42
2022-08-07T13:54:00.160Z,15.43
2022-08-07T13:57:14.473Z,15.41
2022-08-07T14:00:50.436Z,15.37
2022-08-07T14:04:07.216Z,15.29
2022-08-07T14:07:30.633Z,15.22
2022-08-07T14:14:34.888Z,14.99
2022-08-07T14:18:24.041Z,14.79
2022-08-07T14:22:02.969Z,14.98
2022-08-07T14:25:17.983Z,15.16
2022-08-07T14:28:57.471Z,14.87
2022-08-07T14:32:16.318Z,14.59
2022-08-07T14:35:42.992Z,14.60
2022-08-07T14:38:59.714Z,14.83
2022-08-07T14:42:22.710Z,14.84
2022-08-07T14:45:55.150Z,15.07
2022-08-07T14:49:17.651Z,15.00
2022-08-07T14:52:34.959Z,14.98
2022-08-07T14:55:55.649Z,14.91
2022-08-07T14:59:13.974Z,14.79
2022-08-07T15:02:34.714Z,14.97
2022-08-07T15:05:54.952Z,14.94
2022-08-07T15:09:59.031Z,14.79
2022-08-07T15:12:42.004Z,14.88
2022-08-07T15:15:52.806Z,15.00
2022-08-07T15:19:00.624Z,14.99
2022-08-07T15:22:10.126Z,15.00
2022-08-07T15:25:36.653Z,14.97
2022-08-07T15:28:53.581Z,14.97
2022-08-07T15:32:04.983Z,14.97
2022-08-07T15:35:16.789Z,14.81
2022-08-07T15:45:25.703Z,14.72
2022-08-07T15:49:03.785Z,14.68
2022-08-07T15:52:21.897Z,14.58
2022-08-07T15:55:53.597Z,14.61
2022-08-07T15:59:16.270Z,14.56
2022-08-07T16:02:46.917Z,14.41
2022-08-07T16:05:53.759Z,14.39
2022-08-07T16:09:10.077Z,14.26
2022-08-07T16:12:32.716Z,14.20
2022-08-07T16:15:55.227Z,14.11
2022-08-07T16:19:42.702Z,14.10
2022-08-07T16:23:05.551Z,14.06
2022-08-07T16:26:35.829Z,14.05
2022-08-07T16:30:11.484Z,13.93
2022-08-07T16:34:03.322Z,13.97
2022-08-07T16:37:02.639Z,13.92
2022-08-07T16:40:34.718Z,13.83
2022-08-07T16:44:46.260Z,13.69
2022-08-07T16:47:56.218Z,13.49
2022-08-07T16:51:54.496Z,13.28
2022-08-07T16:55:27.853Z,13.16
2022-08-07T16:59:10.866Z,13.17
2022-08-07T17:02:51.260Z,13.20
2022-08-07T17:06:41.140Z,13.29
2022-08-07T17:10:06.253Z,13.23
2022-08-07T17:13:23.199Z,13.35
2022-08-07T17:16:34.479Z,13.35
2022-08-07T17:20:01.936Z,13.44
2022-08-07T17:23:32.284Z,13.46
2022-08-07T17:27:00.649Z,13.42
2022-08-07T17:30:16.160Z,13.32
2022-08-07T17:34:09.779Z,13.37
2022-08-07T17:36:57.634Z,13.30
2022-08-07T17:40:35.303Z,13.26
2022-08-07T17:44:02.776Z,13.18
2022-08-07T17:47:17.033Z,13.14
2022-08-07T17:50:50.866Z,13.06
2022-08-07T17:54:29.638Z,12.93
2022-08-07T17:57:56.235Z,12.96
2022-08-07T18:01:18.031Z,12.90
2022-08-07T18:04:35.833Z,12.82
2022-08-07T18:07:47.453Z,12.70
2022-08-07T18:12:07.375Z,12.66
2022-08-07T18:15:08.777Z,12.52
2022-08-07T18:18:45.312Z,12.47
2022-08-07T18:21:53.379Z,12.38
2022-08-07T18:25:24.149Z,12.32
2022-08-07T18:28:58.732Z,12.32
2022-08-07T18:32:20.533Z,12.33
2022-08-07T18:35:32.455Z,12.25
2022-08-07T18:40:05.152Z,12.16
2022-08-07T18:42:48.863Z,12.10
2022-08-07T18:46:33.532Z,12.05
2022-08-07T18:50:35.236Z,11.99
2022-08-07T18:53:12.423Z,12.02
2022-08-07T18:56:41.436Z,12.01
2022-08-07T19:00:33.201Z,12.14
2022-08-07T19:03:49.173Z,12.29
2022-08-07T19:07:34.385Z,12.41
2022-08-07T19:10:55.906Z,12.45
2022-08-07T19:14:17.095Z,12.44
2022-08-07T19:18:03.185Z,12.45
2022-08-07T19:21:46.549Z,12.46
2022-08-07T19:24:51.140Z,12.48
2022-08-07T19:28:57.906Z,12.46
2022-08-07T19:31:57.804Z,12.54
2022-08-07T19:35:04.266Z,12.56
2022-08-07T19:38:16.798Z,12.51
2022-08-07T19:41:39.053Z,12.51
2022-08-07T19:44:49.933Z,12.47
2022-08-07T19:47:56.516Z,12.30
2022-08-07T19:51:03.927Z,12.31
2022-08-07T19:54:33.036Z,12.36
2022-08-07T19:58:12.640Z,12.27
2022-08-07T20:01:18.855Z,12.30
2022-08-07T20:04:38.065Z,12.14
2022-08-07T20:07:50.081Z,12.35
2022-08-07T20:11:01.886Z,12.33
2022-08-07T20:14:13.575Z,12.31
2022-08-07T20:17:27.783Z,12.24
2022-08-07T20:20:34.138Z,12.16
2022-08-07T20:23:51.931Z,12.19
2022-08-07T20:27:03.248Z,12.20
2022-08-07T20:30:07.810Z,12.20
2022-08-07T20:33:24.532Z,12.19
2022-08-07T20:36:44.200Z,12.18
2022-08-07T20:40:04.393Z,12.23
2022-08-07T20:43:16.969Z,12.18
2022-08-07T20:46:42.827Z,12.15
2022-08-07T20:49:58.114Z,12.04
2022-08-07T20:53:05.475Z,11.93
2022-08-07T20:56:11.056Z,11.77
2022-08-07T21:00:05.285Z,11.72
2022-08-07T21:02:59.115Z,11.43
2022-08-07T21:06:21.795Z,11.29
2022-08-07T21:09:52.515Z,11.26
2022-08-07T21:13:02.501Z,11.24
2022-08-07T21:16:09.632Z,11.21
2022-08-07T21:19:14.721Z,11.18
2022-08-07T21:22:28.497Z,11.18
2022-08-07T21:25:56.397Z,11.23
2022-08-07T21:29:12.956Z,11.33
2022-08-07T21:32:43.796Z,11.43
2022-08-07T21:36:04.978Z,11.50
2022-08-07T21:39:46.757Z,11.50
2022-08-07T21:43:14.728Z,11.46
2022-08-07T21:46:24.794Z,11.46
2022-08-07T21:50:00.920Z,11.50
2022-08-07T21:53:13.584Z,11.60
2022-08-07T21:56:37.675Z,11.71
2022-08-07T22:00:06.287Z,11.84
2022-08-07T22:03:33.242Z,11.95
2022-08-07T22:06:50.705Z,11.96
2022-08-07T22:10:03.369Z,11.97
2022-08-07T22:13:13.766Z,12.11
2022-08-07T22:16:42.255Z,12.14
2022-08-07T22:20:10.646Z,12.34
2022-08-07T22:23:18.068Z,12.46
2022-08-07T22:26:38.027Z,12.56
2022-08-07T22:29:57.537Z,12.61
2022-08-07T22:33:05.955Z,12.72
2022-08-07T22:36:46.464Z,12.84
2022-08-07T22:40:04.885Z,12.80
2022-08-07T22:43:44.818Z,12.92
2022-08-07T22:47:26.780Z,13.01
2022-08-07T22:50:40.535Z,13.00
2022-08-07T22:54:09.327Z,13.13
2022-08-07T22:57:27.927Z,13.27
2022-08-07T23:00:43.833Z,13.29
2022-08-07T23:04:16.236Z,13.39
2022-08-07T23:07:42.020Z,13.57
2022-08-07T23:11:13.236Z,13.53
2022-08-07T23:14:41.258Z,13.83
2022-08-07T23:18:04.922Z,13.81
2022-08-07T23:21:17.466Z,13.86
2022-08-07T23:24:47.682Z,13.93
2022-08-07T23:28:20.070Z,13.97
2022-08-07T23:34:20.272Z,13.95
2022-08-07T23:35:19.966Z,14.12
2022-08-07T23:38:43.320Z,14.15
2022-08-07T23:42:30.646Z,14.15
2022-08-07T23:46:11.559Z,14.15
2022-08-07T23:49:50.293Z,14.31
2022-08-07T23:53:49.643Z,14.43
2022-08-07T23:57:11.160Z,14.67
